Jordan, MT

7:37 AM MST on December 11, 2016 (GMT -0700)
Wokal-Glasgow International | | Change Station
Active Advisory: Winter Weather Advisory

Elev 2293 ft 48.21 °N, 106.62 °W | Updated 44 minutes ago

Clear
Clear
-11 °F
Feels Like -20 °F
N
4
Wind Variable Wind from WSW

Today
High -- | Low -- °F
--% Chance of Precip.
Yesterday
High -- | Low -- °F
Precip. -- in
Pressure 30.17 in
Visibility 10.0 miles
Clouds Clear
Windchill -20 °F
Dew Point -15 °F
Humidity 83%
Rainfall 0.00 in
Snow Depth Not available.
7:45 AM 4:17 PM
Waxing Gibbous, 92% visible
METAR KGGW 111353Z AUTO 25003KT 10SM CLR M24/M26 A2997 RMK AO2 SLP215 I1000 T12391261
Pressure 30.17 in
Visibility 10.0 miles
Clouds Clear
Windchill -20 °F
Dew Point -15 °F
Humidity 83%
Rainfall 0.00 in
Snow Depth Not available.
7:45 AM 4:17 PM
Waxing Gibbous, 92% visible
METAR KGGW 111353Z AUTO 25003KT 10SM CLR M24/M26 A2997 RMK AO2 SLP215 I1000 T12391261

10-Day Weather Forecast

Almanac

Astronomy

Dec. 11, 2016 Rise Set
Actual Time
Civil Twilight
Nautical Twilight
Astronomical Twilight
Moon
Length of Visible Light
Length of Day
Tomorrow will be .
, % of the Moon is Illuminated

Today's Extremes

State Highs State Lows

Community

WunderPhotos

Upload Photos

1,956,719 photos uploaded!

WunderBlog® & News

Nearby

Air Quality

  Air Quality AQ Index Pollutant
Not available.

Snow Depth

Station Depth Elevation

Earthquake Activity

City Distance Mag. Time & Date
Minimum magnitude displayed is 2.5.

Coastal Water Temperatures

Place Temperature

Stations

Nearby Weather Stations

Station Location Temp. Windchill Dew Point Humidity Wind Precip. Elev Updated Type
                   

Watches & Warnings

Winter Weather Advisory
Issued: 2:58 AM MST Dec. 11, 2016 – National Weather Service

... Winter Weather Advisory in effect from 11 am this morning to
11 am MST Monday...

The National Weather Service in Glasgow has issued a Winter
Weather Advisory for snow... which is in effect from 11 am this
morning to 11 am MST Monday.

* Snow accumulations... 1 to 4 inches.

* Timing... from late this morning to late Monday morning.

* Impacts... accumulating snow will cause slippery roads... poor
visibility at times and travel difficulty. Use caution when
traveling... especially in open areas.

* Winds... northwest 10 to 15 mph with gusts up to 25 mph.

* Temperatures... 4 below to 18 above zero.

Precautionary/preparedness actions...

To get the latest information on Road conditions... call the
Montana Department of Transportation Road report number by
dialing 5 1 1.